Time;durP1;ratioP1;P1;durP2;ratioP2;P2;SDS_P1;SDS_P2;PMS_P1;PMS_P2;Temp;Humidity;BMP_temperature;BMP_pressure;BME280_temperature;BME280_humidity;BME280_pressure;Samples;Min_cycle;Max_cycle;Signal;HPM_P1;HPM_P2
2023/06/08 00:01:54;;;;;;;102.25;97.32;;;;;;;26.24;35.10;101734.50;4992823;28;20041;-72
2023/06/08 00:04:22;;;;;;;102.15;97.18;;;;;;;26.20;35.26;101735.47;4993257;28;20360;-73
2023/06/08 00:06:49;;;;;;;101.88;96.55;;;;;;;26.18;35.36;101732.19;4993388;28;20117;-73
2023/06/08 00:09:15;;;;;;;102.25;97.15;;;;;;;26.14;35.20;101729.28;5027490;28;20124;-72
2023/06/08 00:11:41;;;;;;;104.60;99.18;;;;;;;26.11;35.17;101732.69;5010601;28;20030;-73
2023/06/08 00:14:07;;;;;;;100.93;95.88;;;;;;;26.08;35.12;101736.09;5012708;28;20034;-72
2023/06/08 00:16:33;;;;;;;104.07;98.32;;;;;;;26.05;35.43;101728.44;5011681;28;20120;-73
2023/06/08 00:19:00;;;;;;;102.57;97.40;;;;;;;26.02;35.37;101726.31;5012215;28;20470;-72
2023/06/08 00:21:26;;;;;;;103.45;98.35;;;;;;;25.98;35.52;101726.16;5011105;28;20454;-75
2023/06/08 00:23:52;;;;;;;103.88;97.95;;;;;;;25.96;35.67;101727.63;5012096;28;20630;-73
2023/06/08 00:26:18;;;;;;;100.63;95.47;;;;;;;25.92;35.16;101723.88;5012140;28;20109;-72
2023/06/08 00:28:47;;;;;;;103.40;98.07;;;;;;;25.88;35.32;101712.66;5011571;28;20105;-72
2023/06/08 00:31:13;;;;;;;101.47;96.47;;;;;;;25.85;35.46;101722.38;5012319;28;20041;-72
2023/06/08 00:33:38;;;;;;;104.00;98.70;;;;;;;25.82;35.37;101720.22;5011735;28;20026;-72
2023/06/08 00:36:04;;;;;;;101.95;97.05;;;;;;;25.79;35.34;101714.53;5009978;28;20092;-72
2023/06/08 00:38:30;;;;;;;104.00;98.53;;;;;;;25.76;35.53;101715.19;5010153;28;20053;-72
2023/06/08 00:40:55;;;;;;;100.03;95.25;;;;;;;25.72;35.38;101712.22;5011704;28;20084;-73
2023/06/08 00:43:21;;;;;;;100.07;94.95;;;;;;;25.68;35.69;101711.28;5011520;28;20034;-72
2023/06/08 00:45:46;;;;;;;100.28;94.95;;;;;;;25.65;35.46;101709.97;5009770;28;20351;-72
2023/06/08 00:48:11;;;;;;;98.60;94.10;;;;;;;25.63;35.50;101711.41;5010609;28;20034;-73
2023/06/08 00:50:38;;;;;;;98.97;94.35;;;;;;;25.60;35.41;101712.03;5011351;28;20612;-72
2023/06/08 00:53:03;;;;;;;96.65;91.60;;;;;;;25.56;35.75;101705.53;5011817;28;20041;-72
2023/06/08 00:55:33;;;;;;;100.15;95.32;;;;;;;25.52;35.40;101704.53;5010126;28;20042;-72
2023/06/08 00:58:02;;;;;;;105.97;99.90;;;;;;;25.50;35.72;101701.28;5010939;28;20091;-72
2023/06/08 01:00:28;;;;;;;97.95;93.20;;;;;;;25.46;35.77;101696.38;5012637;28;20034;-72
2023/06/08 01:02:55;;;;;;;99.82;94.75;;;;;;;25.44;35.57;101703.38;5010746;28;20033;-72
2023/06/08 01:05:21;;;;;;;99.45;94.45;;;;;;;25.40;35.47;101702.38;5012442;28;20454;-72
2023/06/08 01:07:59;;;;;;;97.63;92.78;;;;;;;25.37;35.45;101691.97;5010877;28;20095;-71
2023/06/08 01:10:32;;;;;;;98.13;93.43;;;;;;;25.34;35.92;101689.84;5011232;28;20479;-72
2023/06/08 01:13:08;;;;;;;99.97;95.07;;;;;;;25.30;35.40;101695.22;5011785;28;20026;-72
2023/06/08 01:15:42;;;;;;;97.05;92.38;;;;;;;25.26;36.05;101692.25;5011174;28;20026;-73
2023/06/08 01:18:09;;;;;;;98.82;94.20;;;;;;;25.23;35.78;101694.84;5011638;28;20037;-71
2023/06/08 01:21:24;;;;;;;97.45;92.78;;;;;;;25.21;35.69;101686.06;5009039;28;20486;-72
2023/06/08 01:24:15;;;;;;;95.20;90.07;;;;;;;25.15;36.11;101690.03;5013797;28;20060;-73
2023/06/08 01:26:43;;;;;;;98.13;93.15;;;;;;;25.11;35.86;101686.31;5011400;28;20032;-72
2023/06/08 01:29:10;;;;;;;98.07;93.13;;;;;;;25.08;35.65;101695.25;5010680;28;20038;-72
2023/06/08 01:31:37;;;;;;;100.47;95.47;;;;;;;25.04;36.07;101686.75;5026165;28;20042;-72
2023/06/08 01:34:04;;;;;;;96.78;91.28;;;;;;;25.02;35.93;101686.25;5010386;28;20138;-71
2023/06/08 01:36:55;;;;;;;96.07;91.65;;;;;;;25.00;35.77;101681.06;5012155;28;20045;-73
2023/06/08 01:39:39;;;;;;;92.20;87.90;;;;;;;24.94;35.73;101682.31;5011374;28;20526;-71
2023/06/08 01:42:07;;;;;;;93.72;88.93;;;;;;;24.92;35.90;101679.06;5011447;28;20038;-71
2023/06/08 01:44:43;;;;;;;95.57;90.50;;;;;;;24.88;36.08;101678.06;5011498;28;20466;-73
2023/06/08 01:47:12;;;;;;;93.28;88.72;;;;;;;24.85;36.39;101681.47;5011101;28;20130;-71
2023/06/08 01:49:38;;;;;;;94.30;89.60;;;;;;;24.82;35.88;101688.44;5009741;28;20188;-72
2023/06/08 01:52:03;;;;;;;91.88;87.28;;;;;;;24.80;35.95;101678.84;5011098;28;20482;-73
2023/06/08 01:54:29;;;;;;;93.65;89.00;;;;;;;24.76;35.97;101675.88;5014097;28;20069;-71
2023/06/08 01:56:54;;;;;;;92.35;87.70;;;;;;;24.72;36.14;101677.66;5001492;28;20121;-72
2023/06/08 01:59:20;;;;;;;90.60;85.90;;;;;;;24.70;36.29;101685.44;5014722;28;20042;-73
2023/06/08 02:01:45;;;;;;;93.03;88.40;;;;;;;24.67;36.44;101682.47;5014374;28;20356;-72
2023/06/08 02:04:11;;;;;;;93.10;88.50;;;;;;;24.63;36.33;101678.72;5029609;28;20492;-71
2023/06/08 02:06:36;;;;;;;93.78;88.88;;;;;;;24.61;36.36;101692.84;5013966;28;20160;-72
2023/06/08 02:09:01;;;;;;;94.35;89.82;;;;;;;24.58;36.01;101690.72;5013909;28;20052;-72
2023/06/08 02:11:27;;;;;;;93.32;88.07;;;;;;;24.55;36.22;101683.06;5014258;28;20037;-72
2023/06/08 02:13:52;;;;;;;90.15;85.15;;;;;;;24.52;36.23;101672.63;5012586;28;20116;-72
2023/06/08 02:16:20;;;;;;;86.03;81.63;;;;;;;24.50;36.42;101680.44;5013657;28;20038;-72
2023/06/08 02:18:46;;;;;;;89.28;84.82;;;;;;;24.46;36.50;101680.22;5012882;28;20055;-72
2023/06/08 02:21:12;;;;;;;88.18;83.78;;;;;;;24.42;36.40;101684.75;5014351;28;20026;-71
2023/06/08 02:23:38;;;;;;;89.97;85.45;;;;;;;24.40;36.49;101692.50;5014031;28;20384;-72
2023/06/08 02:26:07;;;;;;;89.38;84.88;;;;;;;24.36;36.54;101674.94;5013848;28;20025;-71
2023/06/08 02:28:32;;;;;;;88.95;84.55;;;;;;;24.34;36.14;101683.53;5011967;28;20030;-71
2023/06/08 02:30:58;;;;;;;91.75;86.75;;;;;;;24.32;36.13;101682.22;5014110;28;20025;-71
2023/06/08 02:33:23;;;;;;;89.25;84.15;;;;;;;24.28;36.25;101673.72;4995223;28;20034;-70
2023/06/08 02:35:49;;;;;;;88.18;83.88;;;;;;;24.26;36.54;101677.94;4994576;28;20085;-71
2023/06/08 02:38:15;;;;;;;88.53;83.38;;;;;;;24.22;36.19;101675.00;4994309;28;20121;-71
2023/06/08 02:40:41;;;;;;;88.15;83.50;;;;;;;24.18;36.56;101673.97;4993421;28;20034;-71
2023/06/08 02:43:06;;;;;;;87.10;82.72;;;;;;;24.16;36.37;101671.53;4994424;28;20364;-71
2023/06/08 02:45:32;;;;;;;87.80;83.00;;;;;;;24.13;36.69;101677.69;5002736;28;20045;-71
2023/06/08 02:47:57;;;;;;;86.78;81.90;;;;;;;24.11;36.33;101676.34;5027724;28;20049;-71
2023/06/08 02:50:23;;;;;;;88.57;83.25;;;;;;;24.08;36.56;101674.22;5028892;28;20045;-71
2023/06/08 02:52:49;;;;;;;88.70;84.13;;;;;;;24.05;36.45;101677.63;5012784;28;20038;-71
2023/06/08 02:55:15;;;;;;;87.22;82.68;;;;;;;24.03;36.38;101679.88;5012539;28;20459;-71
2023/06/08 02:57:40;;;;;;;87.80;83.07;;;;;;;23.99;36.47;101668.66;5011334;28;20057;-72
2023/06/08 03:00:07;;;;;;;85.72;81.13;;;;;;;23.96;36.91;101672.84;5012703;28;20042;-71
2023/06/08 03:02:33;;;;;;;85.40;80.85;;;;;;;23.94;36.76;101683.38;5013612;28;20038;-71
2023/06/08 03:05:02;;;;;;;87.57;82.82;;;;;;;23.92;36.65;101676.53;5013596;28;20041;-71
2023/06/08 03:07:28;;;;;;;85.88;81.43;;;;;;;23.89;37.03;101671.59;5013916;28;20046;-71
2023/06/08 03:09:53;;;;;;;86.70;82.07;;;;;;;23.85;36.90;101682.47;5013001;28;20053;-71
2023/06/08 03:12:19;;;;;;;85.10;80.88;;;;;;;23.83;36.75;101683.91;5012811;28;20060;-71
2023/06/08 03:14:45;;;;;;;85.60;81.20;;;;;;;23.80;36.47;101682.56;5013030;28;20030;-71
2023/06/08 03:17:10;;;;;;;85.97;81.18;;;;;;;23.77;36.91;101676.88;5028460;28;20139;-70
2023/06/08 03:19:35;;;;;;;85.57;80.95;;;;;;;23.73;36.71;101676.66;5012304;28;20095;-71
2023/06/08 03:22:04;;;;;;;85.43;81.20;;;;;;;23.72;37.07;101681.34;5004332;28;20037;-71
2023/06/08 03:24:32;;;;;;;87.32;82.70;;;;;;;23.69;36.70;101675.63;4994155;28;20036;-71
2023/06/08 03:26:59;;;;;;;88.47;84.03;;;;;;;23.66;36.91;101673.47;4992999;28;20037;-70
2023/06/08 03:29:25;;;;;;;85.93;81.35;;;;;;;23.63;36.93;101680.41;4992274;28;20037;-71
2023/06/08 03:31:51;;;;;;;87.13;82.43;;;;;;;23.60;37.01;101681.03;4993545;28;20039;-71
2023/06/08 03:34:17;;;;;;;84.38;80.05;;;;;;;23.58;36.76;101683.28;4993491;28;20054;-70
2023/06/08 03:36:43;;;;;;;87.13;82.18;;;;;;;23.55;36.60;101681.16;4993301;28;20076;-71
2023/06/08 03:39:09;;;;;;;84.97;80.65;;;;;;;23.52;36.82;101676.25;4994014;28;20027;-69
2023/06/08 03:41:35;;;;;;;86.72;82.15;;;;;;;23.49;36.62;101674.94;4993176;28;20040;-69
2023/06/08 03:44:01;;;;;;;85.18;80.50;;;;;;;23.46;36.72;101675.53;4993036;28;20380;-69
2023/06/08 03:46:27;;;;;;;85.13;80.25;;;;;;;23.43;37.24;101670.63;4993291;28;20089;-69
2023/06/08 03:48:53;;;;;;;85.63;81.15;;;;;;;23.41;37.22;101672.91;4993142;28;20109;-70
2023/06/08 03:51:21;;;;;;;85.07;79.97;;;;;;;23.39;37.27;101666.88;4993265;28;20125;-70
2023/06/08 03:53:46;;;;;;;82.13;77.72;;;;;;;23.37;36.90;101673.81;4993267;28;20038;-70
2023/06/08 03:56:12;;;;;;;83.80;79.60;;;;;;;23.34;36.72;101669.72;4993168;28;20096;-70
2023/06/08 03:58:38;;;;;;;87.63;83.18;;;;;;;23.30;36.93;101671.44;4993209;28;20486;-70
2023/06/08 04:01:04;;;;;;;90.03;85.28;;;;;;;23.27;36.94;101672.88;4992502;28;20493;-72
2023/06/08 04:03:30;;;;;;;84.18;79.88;;;;;;;23.25;36.96;101675.13;4992231;28;20117;-71
2023/06/08 04:05:56;;;;;;;86.13;81.72;;;;;;;23.23;36.94;101671.03;4992768;28;20034;-71
2023/06/08 04:08:22;;;;;;;84.55;79.75;;;;;;;23.20;37.05;101666.94;4992921;28;20565;-71
2023/06/08 04:10:48;;;;;;;84.25;79.72;;;;;;;23.18;37.12;101665.63;4992482;28;20035;-71
2023/06/08 04:13:14;;;;;;;84.28;79.53;;;;;;;23.16;36.88;101670.63;4991954;28;20089;-71
2023/06/08 04:15:39;;;;;;;81.63;77.47;;;;;;;23.11;37.03;101663.28;4992810;28;20065;-71
2023/06/08 04:18:05;;;;;;;83.68;78.93;;;;;;;23.09;37.06;101660.84;4992644;28;20042;-70
2023/06/08 04:20:32;;;;;;;81.13;76.30;;;;;;;23.07;37.47;101665.00;4991878;28;20092;-71
2023/06/08 04:22:58;;;;;;;82.68;78.20;;;;;;;23.04;37.37;101654.59;4992565;28;20034;-71
2023/06/08 04:25:26;;;;;;;81.85;77.38;;;;;;;23.01;36.98;101658.78;4992572;28;20655;-70
2023/06/08 04:27:52;;;;;;;81.25;76.70;;;;;;;22.99;37.38;101660.22;4991451;28;20034;-70
2023/06/08 04:30:18;;;;;;;82.10;77.85;;;;;;;22.96;37.38;101664.38;4992329;28;20397;-71
2023/06/08 04:32:43;;;;;;;82.10;77.95;;;;;;;22.96;37.14;101663.56;4992765;28;20038;-71
2023/06/08 04:35:09;;;;;;;85.18;80.43;;;;;;;22.92;37.00;101665.28;4990991;28;20549;-71
2023/06/08 04:37:35;;;;;;;84.63;80.45;;;;;;;22.89;37.44;101659.25;4992643;28;20642;-70
2023/06/08 04:40:01;;;;;;;79.65;75.78;;;;;;;22.87;37.27;101660.66;4992248;28;20038;-70
2023/06/08 04:42:27;;;;;;;81.30;77.22;;;;;;;22.85;37.14;101660.97;4992928;28;20235;-71
2023/06/08 04:44:53;;;;;;;82.72;78.47;;;;;;;22.82;37.25;101660.75;4990792;28;20053;-72
2023/06/08 04:47:18;;;;;;;81.53;77.35;;;;;;;22.80;37.28;101663.00;4992574;28;20164;-71
2023/06/08 04:49:44;;;;;;;80.40;76.38;;;;;;;22.78;37.67;101656.97;4992704;28;20117;-70
2023/06/08 04:52:13;;;;;;;82.90;78.68;;;;;;;22.74;37.44;101659.53;4992190;28;20945;-71
2023/06/08 04:54:39;;;;;;;80.57;76.45;;;;;;;22.73;37.44;101657.06;4992568;28;20108;-71
2023/06/08 04:57:08;;;;;;;80.63;76.43;;;;;;;22.71;37.28;101659.31;5007212;28;20066;-71
2023/06/08 04:59:35;;;;;;;76.53;71.93;;;;;;;22.68;37.39;101660.75;4992744;28;20439;-71
2023/06/08 05:02:01;;;;;;;79.45;74.93;;;;;;;22.66;37.15;101660.22;4991551;28;20049;-71
2023/06/08 05:04:26;;;;;;;77.28;73.10;;;;;;;22.64;37.69;101656.94;4993599;28;20435;-70
2023/06/08 05:06:52;;;;;;;80.90;76.60;;;;;;;22.61;37.26;101652.88;4992148;28;20046;-72
2023/06/08 05:09:17;;;;;;;78.22;73.25;;;;;;;22.59;37.66;101652.34;4992468;28;20039;-70
2023/06/08 05:11:43;;;;;;;77.85;73.90;;;;;;;22.57;37.70;101660.09;4992686;28;20038;-70
2023/06/08 05:14:10;;;;;;;78.80;74.78;;;;;;;22.55;37.72;101656.81;4990613;28;20089;-71
2023/06/08 05:16:38;;;;;;;76.85;72.63;;;;;;;22.53;37.51;101660.97;4991987;28;20426;-71
2023/06/08 05:19:08;;;;;;;75.43;71.43;;;;;;;22.51;37.66;101654.97;4991516;28;20045;-70
2023/06/08 05:21:36;;;;;;;76.82;72.90;;;;;;;22.48;37.85;101653.66;4992386;28;20033;-71
2023/06/08 05:24:02;;;;;;;;;;;;;;;22.45;37.86;101655.06;5011509;28;20427;-70
2023/06/08 05:26:27;;;;;;;72.82;69.18;;;;;;;22.43;37.76;101662.00;5011157;28;20001;-70
2023/06/08 05:28:52;;;;;;;78.72;73.70;;;;;;;22.40;37.83;101652.41;5013484;28;20038;-70
2023/06/08 05:31:18;;;;;;;75.68;71.63;;;;;;;22.38;37.35;101646.38;5015279;28;20117;-70
2023/06/08 05:33:43;;;;;;;78.45;73.72;;;;;;;22.38;37.77;101648.31;5014675;28;20037;-70
2023/06/08 05:36:08;;;;;;;77.72;73.85;;;;;;;22.37;37.95;101641.16;5014153;28;20057;-70
2023/06/08 05:38:34;;;;;;;78.50;74.30;;;;;;;22.37;37.72;101649.41;5015200;28;20125;-71
2023/06/08 05:41:00;;;;;;;79.10;74.72;;;;;;;22.37;37.67;101647.47;5014636;28;20049;-70
2023/06/08 05:43:26;;;;;;;79.85;75.13;;;;;;;22.36;37.71;101647.78;5014439;28;20084;-71
2023/06/08 05:45:52;;;;;;;76.40;72.35;;;;;;;22.35;38.03;101651.66;5014932;28;20034;-70
2023/06/08 05:48:17;;;;;;;76.70;72.65;;;;;;;22.35;37.99;101648.91;5013502;28;20049;-70
2023/06/08 05:50:43;;;;;;;76.30;72.10;;;;;;;22.34;37.98;101647.28;5014573;28;20472;-69
2023/06/08 05:53:08;;;;;;;78.35;73.95;;;;;;;22.32;37.73;101642.06;5014193;28;20125;-70
2023/06/08 05:55:33;;;;;;;75.55;71.25;;;;;;;22.32;37.62;101646.75;5014908;28;20030;-70
2023/06/08 05:57:59;;;;;;;79.28;75.20;;;;;;;22.31;38.19;101642.38;5014260;28;20076;-70
2023/06/08 06:00:25;;;;;;;74.18;70.35;;;;;;;22.30;38.06;101638.81;5014936;28;20145;-69
2023/06/08 06:02:50;;;;;;;76.45;72.43;;;;;;;22.31;37.82;101643.19;5029869;28;20034;-69
2023/06/08 06:05:16;;;;;;;73.00;69.30;;;;;;;22.31;37.98;101648.69;5014029;28;20040;-70
2023/06/08 06:07:41;;;;;;;76.45;72.32;;;;;;;22.30;38.11;101644.31;5013884;28;20081;-70
2023/06/08 06:10:08;;;;;;;76.82;72.32;;;;;;;22.30;37.68;101643.47;5014045;28;20121;-69
2023/06/08 06:12:33;;;;;;;75.72;71.88;;;;;;;22.30;38.11;101638.81;5013722;28;20041;-69
2023/06/08 06:14:59;;;;;;;77.35;73.25;;;;;;;22.31;37.62;101647.88;5013868;28;20379;-70
2023/06/08 06:17:25;;;;;;;75.78;71.60;;;;;;;22.30;37.66;101649.81;5014375;28;20102;-70
2023/06/08 06:19:50;;;;;;;77.75;73.70;;;;;;;22.31;38.05;101654.19;5014114;28;20455;-70
2023/06/08 06:22:16;;;;;;;78.13;73.93;;;;;;;22.32;38.38;101653.06;5013254;28;20060;-70
2023/06/08 06:24:42;;;;;;;77.70;73.40;;;;;;;22.33;38.19;101654.72;5013265;28;20120;-70
2023/06/08 06:27:07;;;;;;;78.47;74.22;;;;;;;22.34;38.11;101650.84;5013804;28;20049;-70
2023/06/08 06:29:33;;;;;;;76.03;71.88;;;;;;;22.35;38.09;101659.91;5029338;28;20065;-70
2023/06/08 06:31:59;;;;;;;78.80;73.70;;;;;;;22.34;38.14;101656.34;5014153;28;20120;-70
2023/06/08 06:34:24;;;;;;;77.03;73.03;;;;;;;22.34;37.82;101656.34;5013322;28;20192;-71
2023/06/08 06:36:50;;;;;;;76.43;72.30;;;;;;;22.36;38.23;101656.88;5012821;28;20040;-69
2023/06/08 06:39:18;;;;;;;80.65;76.30;;;;;;;22.37;37.72;101658.47;5012855;28;20122;-70
2023/06/08 06:41:43;;;;;;;78.53;73.55;;;;;;;22.39;38.18;101658.19;5012877;28;20493;-70
2023/06/08 06:44:08;;;;;;;78.47;74.30;;;;;;;22.38;37.91;101660.13;5013594;28;20022;-70
2023/06/08 06:46:34;;;;;;;78.65;74.60;;;;;;;22.39;37.92;101659.00;5013228;28;20121;-70
2023/06/08 06:48:59;;;;;;;79.95;75.60;;;;;;;22.40;38.26;101655.16;5013568;28;20033;-70
2023/06/08 06:51:25;;;;;;;77.88;73.93;;;;;;;22.41;38.01;101661.47;5012383;28;20033;-70
2023/06/08 06:53:51;;;;;;;77.50;73.20;;;;;;;22.42;38.22;101672.16;5013607;28;20022;-70
2023/06/08 06:56:16;;;;;;;77.43;73.60;;;;;;;22.41;38.37;101673.28;5013294;28;20033;-70
2023/06/08 06:58:44;;;;;;;77.28;73.35;;;;;;;22.41;38.33;101667.78;5013665;28;20153;-70
2023/06/08 07:01:12;;;;;;;77.30;73.05;;;;;;;22.42;38.60;101663.91;5013299;28;20034;-70
2023/06/08 07:03:40;;;;;;;79.72;74.78;;;;;;;22.46;38.19;101669.66;5013061;28;20663;-70
2023/06/08 07:06:06;;;;;;;77.60;72.85;;;;;;;22.47;38.55;101669.31;5012208;28;20045;-70
2023/06/08 07:08:32;;;;;;;80.03;75.60;;;;;;;22.51;38.54;101671.50;5013548;28;20126;-70
2023/06/08 07:10:58;;;;;;;78.65;74.13;;;;;;;22.52;38.49;101670.38;5013094;28;20121;-70
2023/06/08 07:13:23;;;;;;;78.97;74.40;;;;;;;22.52;38.32;101662.91;5013093;28;20034;-70
2023/06/08 07:15:48;;;;;;;78.53;73.88;;;;;;;22.54;38.14;101660.69;5027463;28;20038;-70
2023/06/08 07:18:14;;;;;;;78.07;73.45;;;;;;;22.55;38.40;101662.31;5013004;28;20105;-70
2023/06/08 07:20:40;;;;;;;77.90;73.38;;;;;;;22.59;38.93;101663.34;5012427;28;20045;-70
2023/06/08 07:23:05;;;;;;;80.25;75.53;;;;;;;22.60;38.65;101654.00;5012044;28;20060;-71
2023/06/08 07:25:31;;;;;;;79.65;75.25;;;;;;;22.63;38.88;101664.41;5011885;28;20026;-71
2023/06/08 07:27:56;;;;;;;80.65;76.05;;;;;;;22.65;38.55;101653.91;5012857;28;20038;-71
2023/06/08 07:30:21;;;;;;;81.75;77.13;;;;;;;22.67;38.60;101651.66;5012559;28;20486;-71
2023/06/08 07:32:48;;;;;;;79.60;74.88;;;;;;;22.70;38.69;101647.47;5011888;28;20034;-70
2023/06/08 07:35:13;;;;;;;79.85;75.53;;;;;;;22.72;38.56;101649.94;5011837;28;20050;-71
2023/06/08 07:37:39;;;;;;;78.32;74.30;;;;;;;22.74;38.70;101656.78;5028110;28;20088;-71
2023/06/08 07:40:07;;;;;;;80.90;76.00;;;;;;;22.78;38.79;101651.47;5013063;28;20041;-71
2023/06/08 07:42:33;;;;;;;79.60;74.97;;;;;;;22.83;38.84;101651.38;5012721;28;20065;-70
2023/06/08 07:44:58;;;;;;;81.07;76.72;;;;;;;22.85;38.84;101649.94;5011755;28;20390;-71
2023/06/08 07:47:23;;;;;;;84.03;78.85;;;;;;;22.89;38.92;101644.66;5011297;28;20109;-71
2023/06/08 07:49:49;;;;;;;82.43;78.18;;;;;;;22.92;39.00;101632.22;5012270;28;20041;-70
2023/06/08 07:52:14;;;;;;;86.10;81.32;;;;;;;22.97;38.98;101637.63;5010824;28;20046;-71
2023/06/08 07:54:40;;;;;;;81.78;77.50;;;;;;;22.99;39.10;101636.22;5012660;28;20030;-71
2023/06/08 07:57:05;;;;;;;83.03;78.18;;;;;;;23.02;39.49;101643.88;5011416;28;20044;-71
2023/06/08 07:59:31;;;;;;;84.28;79.45;;;;;;;23.07;39.52;101643.78;5012217;28;20116;-71
2023/06/08 08:01:57;;;;;;;82.13;77.63;;;;;;;23.11;39.22;101647.56;5012512;28;20036;-71
2023/06/08 08:04:22;;;;;;;85.35;80.55;;;;;;;23.16;39.25;101645.81;5011745;28;20130;-71
2023/06/08 08:06:47;;;;;;;86.65;81.95;;;;;;;23.18;39.23;101647.16;5011950;28;20045;-71
2023/06/08 08:09:13;;;;;;;82.65;78.35;;;;;;;23.24;39.27;101645.13;5011879;28;20026;-71
2023/06/08 08:11:38;;;;;;;87.13;82.38;;;;;;;23.29;39.38;101642.25;5012085;28;20038;-71
2023/06/08 08:14:09;;;;;;;86.22;80.43;;;;;;;23.35;39.71;101643.78;5011384;28;20398;-71
2023/06/08 08:16:38;;;;;;;85.45;80.63;;;;;;;23.41;39.76;101644.47;5012353;28;20489;-71
2023/06/08 08:19:04;;;;;;;87.68;82.28;;;;;;;23.45;39.56;101637.25;5011607;28;20411;-71
2023/06/08 08:21:29;;;;;;;86.63;82.03;;;;;;;23.50;39.66;101650.91;5011856;28;20026;-71
2023/06/08 08:23:55;;;;;;;87.82;83.22;;;;;;;23.57;39.69;101647.75;5011854;28;20432;-71
2023/06/08 08:26:21;;;;;;;90.75;85.28;;;;;;;23.60;39.42;101645.19;5011186;28;20033;-71
2023/06/08 08:28:46;;;;;;;88.35;82.95;;;;;;;23.66;39.90;101643.13;5012138;28;20061;-71
2023/06/08 08:31:12;;;;;;;86.22;81.65;;;;;;;23.72;39.47;101639.97;5011600;28;20548;-72
2023/06/08 08:33:37;;;;;;;89.47;84.78;;;;;;;23.79;39.30;101642.31;5010039;28;20033;-72
2023/06/08 08:36:04;;;;;;;92.30;87.18;;;;;;;23.86;39.69;101631.66;5012334;28;20080;-72
2023/06/08 08:38:30;;;;;;;89.75;84.65;;;;;;;23.91;39.11;101639.84;5010206;28;20121;-71
2023/06/08 08:41:02;;;;;;;90.28;85.47;;;;;;;23.97;39.88;101638.59;4994501;28;20037;-72
2023/06/08 08:43:50;;;;;;;90.68;85.97;;;;;;;24.05;39.30;101639.78;5026131;28;20124;-72
2023/06/08 08:46:17;;;;;;;91.80;86.57;;;;;;;24.11;39.81;101627.47;5011549;28;20113;-72
2023/06/08 08:48:43;;;;;;;91.90;86.57;;;;;;;24.19;39.23;101639.72;5011846;28;20288;-71
2023/06/08 08:51:18;;;;;;;91.65;87.15;;;;;;;24.27;39.30;101632.66;5011484;28;20042;-71
2023/06/08 08:53:48;;;;;;;95.15;89.90;;;;;;;24.34;39.20;101633.00;5012270;28;20042;-71
2023/06/08 08:56:28;;;;;;;94.55;88.97;;;;;;;24.40;39.51;101640.84;5010447;28;20026;-72
2023/06/08 08:58:54;;;;;;;91.72;86.43;;;;;;;24.48;39.76;101632.97;5011940;28;20064;-72
2023/06/08 09:01:21;;;;;;;96.40;91.15;;;;;;;24.55;39.46;101631.41;5010025;28;20049;-72
2023/06/08 09:03:47;;;;;;;97.82;92.28;;;;;;;24.65;39.18;101633.09;5014729;28;20030;-72
2023/06/08 09:06:13;;;;;;;93.07;88.07;;;;;;;24.74;39.39;101638.63;5016087;28;20140;-71
2023/06/08 09:08:39;;;;;;;93.40;88.20;;;;;;;24.80;39.51;101632.69;5015492;28;20454;-71
2023/06/08 09:11:09;;;;;;;95.65;90.07;;;;;;;24.88;39.42;101628.31;5015295;28;20390;-71
2023/06/08 09:13:35;;;;;;;96.68;91.47;;;;;;;24.96;39.53;101638.59;5015187;28;20109;-71
2023/06/08 09:16:19;;;;;;;97.53;92.28;;;;;;;25.06;39.22;101629.19;5015535;28;20030;-72
2023/06/08 09:18:46;;;;;;;100.07;94.65;;;;;;;25.15;39.27;101632.81;5014331;28;20377;-72
2023/06/08 09:21:26;;;;;;;97.05;91.95;;;;;;;25.22;39.43;101624.91;5015518;28;20538;-72
2023/06/08 09:24:18;;;;;;;100.97;95.65;;;;;;;25.31;39.15;101627.69;5015595;28;20053;-72
2023/06/08 09:26:45;;;;;;;97.82;92.40;;;;;;;25.38;39.34;101613.41;4994891;28;20038;-71
2023/06/08 09:29:12;;;;;;;100.82;95.20;;;;;;;25.46;39.46;101605.09;4996367;28;20037;-71
2023/06/08 09:31:49;;;;;;;101.78;96.57;;;;;;;25.56;39.27;101615.06;5014289;28;20038;-71
2023/06/08 09:34:15;;;;;;;100.30;95.35;;;;;;;25.65;39.30;101615.03;5031290;28;20030;-71
2023/06/08 09:36:43;;;;;;;102.63;97.05;;;;;;;25.74;38.88;101609.53;5013757;28;20145;-71
2023/06/08 09:39:09;;;;;;;101.50;96.55;;;;;;;25.83;38.87;101602.03;5015039;28;20052;-71
2023/06/08 09:41:38;;;;;;;107.00;101.53;;;;;;;25.92;38.92;101605.66;5014796;28;20026;-71
2023/06/08 09:44:23;;;;;;;103.65;98.43;;;;;;;26.02;38.73;101596.22;5015117;28;20030;-72
2023/06/08 09:46:49;;;;;;;104.80;99.25;;;;;;;26.10;38.97;101601.72;5014912;28;20042;-72
2023/06/08 09:49:16;;;;;;;106.32;100.85;;;;;;;26.20;38.22;101589.50;5030249;28;20398;-72
2023/06/08 09:51:47;;;;;;;108.30;102.65;;;;;;;26.28;38.57;101599.78;5029034;28;20395;-72
2023/06/08 09:54:15;;;;;;;104.35;99.35;;;;;;;26.37;38.54;101593.38;5015122;28;20021;-72
2023/06/08 09:56:46;;;;;;;106.75;101.13;;;;;;;26.46;38.38;101599.69;5014102;28;20053;-73
2023/06/08 09:59:15;;;;;;;110.20;104.50;;;;;;;26.55;38.71;101595.00;5030127;28;20037;-71
2023/06/08 10:01:45;;;;;;;109.97;104.65;;;;;;;26.63;38.47;101596.09;5014212;28;20034;-71
2023/06/08 10:04:19;;;;;;;108.65;102.97;;;;;;;26.72;38.32;101594.94;5001829;28;20068;-72
2023/06/08 10:06:47;;;;;;;111.47;105.38;;;;;;;26.82;38.65;101590.97;5010740;28;20073;-72
2023/06/08 10:09:16;;;;;;;114.15;108.13;;;;;;;26.92;38.33;101587.03;4994004;28;20034;-72
2023/06/08 10:11:42;;;;;;;117.90;112.15;;;;;;;27.01;38.02;101586.97;4994899;28;20030;-72
2023/06/08 10:14:08;;;;;;;112.18;106.40;;;;;;;27.10;38.29;101587.75;4993657;28;20030;-72
2023/06/08 10:16:35;;;;;;;115.43;109.47;;;;;;;27.19;37.93;101577.47;4994562;28;20056;-72
2023/06/08 10:19:02;;;;;;;114.05;108.60;;;;;;;27.29;38.01;101576.22;4995094;28;20034;-71
2023/06/08 10:21:29;;;;;;;118.50;112.45;;;;;;;27.37;38.07;101584.53;4994949;28;20153;-73
2023/06/08 10:23:56;;;;;;;115.70;110.00;;;;;;;27.47;37.75;101572.22;4994803;28;20081;-72
2023/06/08 10:26:23;;;;;;;115.82;110.07;;;;;;;27.56;37.21;101569.34;4994778;28;20030;-72
2023/06/08 10:29:10;;;;;;;116.88;111.38;;;;;;;27.67;37.21;101564.19;4994937;28;20041;-72
2023/06/08 10:31:39;;;;;;;121.13;114.93;;;;;;;27.76;37.46;101564.94;5006104;28;20029;-72
2023/06/08 10:34:10;;;;;;;117.93;112.32;;;;;;;27.85;37.04;101571.28;5010162;28;20022;-72
2023/06/08 10:36:39;;;;;;;120.32;114.28;;;;;;;27.93;37.31;101556.50;4994180;28;20133;-72
2023/06/08 10:39:10;;;;;;;121.45;114.28;;;;;;;28.03;37.03;101556.06;4994562;28;20044;-72
2023/06/08 10:41:53;;;;;;;121.30;115.32;;;;;;;28.13;36.95;101565.13;4994685;28;20061;-74
2023/06/08 10:44:40;;;;;;;119.32;113.90;;;;;;;28.22;37.19;101549.16;4997684;28;20029;-72
2023/06/08 10:47:12;;;;;;;123.15;117.28;;;;;;;28.31;37.02;101546.31;5013719;28;20096;-74
2023/06/08 10:49:45;;;;;;;122.85;116.88;;;;;;;28.41;37.51;101546.66;5012305;28;20032;-72
2023/06/08 10:52:17;;;;;;;126.00;120.00;;;;;;;28.50;36.78;101545.78;5013676;28;20036;-73
2023/06/08 10:54:57;;;;;;;127.32;121.43;;;;;;;28.60;36.40;101545.31;5012588;28;20474;-72
2023/06/08 10:57:45;;;;;;;122.35;116.45;;;;;;;28.70;35.84;101539.31;5013115;28;20080;-72
2023/06/08 11:00:26;;;;;;;124.00;117.72;;;;;;;28.80;36.14;101532.47;5013219;28;20056;-73
2023/06/08 11:02:52;;;;;;;124.32;117.78;;;;;;;28.88;35.88;101532.38;5014462;28;20057;-72
2023/06/08 11:05:18;;;;;;;122.38;116.70;;;;;;;28.97;34.82;101529.44;5012816;28;20037;-72
2023/06/08 11:07:43;;;;;;;123.70;118.00;;;;;;;29.05;35.10;101522.97;5011866;28;20033;-72
2023/06/08 11:10:10;;;;;;;127.55;121.32;;;;;;;29.14;35.37;101528.44;5013140;28;20037;-72